createdAt,value
2018-02-06T06:24:45.762Z,81.23
2018-02-06T06:27:12.705Z,80.96
2018-02-06T06:29:40.184Z,81.55
2018-02-06T06:32:07.768Z,81.32
2018-02-06T06:34:41.020Z,81.53
2018-02-06T06:37:35.321Z,81.36
2018-02-06T06:40:21.403Z,81.85
2018-02-06T06:43:00.465Z,81.91
2018-02-06T06:48:54.894Z,82.23
2018-02-06T06:51:21.836Z,82.11
2018-02-06T06:53:49.538Z,81.89
2018-02-06T06:56:16.864Z,82.37
2018-02-06T06:58:43.837Z,82.42
2018-02-06T07:01:11.174Z,82.86
2018-02-06T07:03:42.240Z,82.74
2018-02-06T07:06:11.637Z,83.09
2018-02-06T07:08:41.140Z,83.11
2018-02-06T07:11:08.723Z,82.84
2018-02-06T07:13:35.699Z,83.29
2018-02-06T07:16:02.946Z,83.30
2018-02-06T07:18:29.956Z,83.00
2018-02-06T07:20:57.818Z,82.69
2018-02-06T07:23:26.937Z,82.30
2018-02-06T07:25:53.885Z,82.54
2018-02-06T07:28:20.797Z,82.62
2018-02-06T07:36:39.277Z,83.15
2018-02-06T07:39:08.034Z,82.56
2018-02-06T07:41:35.008Z,82.67
2018-02-06T07:44:02.963Z,82.80
2018-02-06T07:46:29.931Z,82.43
2018-02-06T07:51:32.030Z,82.63
2018-02-06T07:53:59.524Z,83.22
2018-02-06T07:56:27.175Z,83.62
2018-02-06T07:58:55.190Z,83.30
2018-02-06T08:01:22.350Z,83.26
2018-02-06T08:04:21.855Z,82.81
2018-02-06T08:06:59.641Z,83.13
2018-02-06T08:13:02.947Z,83.29
2018-02-06T08:21:33.689Z,83.45
2018-02-06T08:29:51.432Z,83.66
2018-02-06T08:32:26.293Z,82.97
2018-02-06T08:35:04.355Z,83.09
2018-02-06T08:37:32.652Z,82.88
2018-02-06T08:49:26.559Z,82.25
2018-02-06T09:00:56.567Z,81.63
2018-02-06T09:11:43.748Z,81.90
2018-02-06T09:14:14.352Z,81.83
2018-02-06T09:23:06.705Z,81.51
2018-02-06T09:25:58.621Z,82.18
2018-02-06T09:46:25.318Z,81.45
2018-02-06T09:49:17.372Z,81.82
2018-02-06T09:51:45.362Z,81.26
2018-02-06T09:54:14.445Z,81.32
2018-02-06T09:59:50.919Z,80.57
2018-02-06T10:05:06.346Z,79.65
2018-02-06T10:07:33.725Z,79.53
2018-02-06T10:10:02.812Z,80.06
2018-02-06T10:12:32.422Z,79.78
2018-02-06T10:15:00.611Z,79.32
2018-02-06T10:17:33.510Z,79.49
2018-02-06T10:20:01.306Z,78.88
2018-02-06T10:22:29.359Z,78.79
2018-02-06T10:24:56.374Z,78.03
2018-02-06T10:30:01.759Z,78.31
2018-02-06T10:32:31.102Z,78.50
2018-02-06T10:35:02.429Z,77.74
2018-02-06T10:37:48.042Z,77.75
2018-02-06T10:40:15.369Z,77.30
2018-02-06T10:42:42.317Z,77.52
2018-02-06T10:45:10.173Z,77.15
2018-02-06T10:47:37.100Z,76.74
2018-02-06T10:50:04.015Z,76.92
2018-02-06T10:52:31.646Z,76.37
2018-02-06T10:57:50.053Z,76.48
2018-02-06T20:09:10.751Z,75.21
2018-02-06T20:11:43.482Z,74.88
2018-02-06T20:14:15.337Z,75.27
2018-02-06T20:16:47.385Z,75.37
2018-02-06T20:21:50.791Z,74.98
2018-02-06T20:26:55.695Z,75.23
2018-02-06T20:29:24.872Z,74.62
2018-02-06T20:31:58.314Z,75.39
2018-02-06T20:37:06.686Z,74.92
2018-02-06T20:39:38.994Z,74.98
2018-02-06T20:42:08.495Z,74.39
2018-02-06T20:44:39.703Z,74.27
2018-02-06T20:47:11.786Z,74.98
2018-02-06T20:55:01.139Z,74.54
